AREA preflight bulletin
Updated "live" 22 Nov 2017, 21:51

back to the map




METAR og TAF


NARSARSUAQ
  AKTUEL BGBW 222150Z AUTO 06014KT 9999NDV BKN220/// M01/M16 Q1029=
  TAF 9 timer BGBW 221955Z 2218/2223 CNL=

QAQORTOQ
  AKTUEL BGJH 222150Z AUTO 11009KT 080V140 //// ///////// M00/M10 Q1027=

PAAMIUT
  AKTUEL BGPT 222150Z AUTO 13007KT 9999NDV OVC100/// M01/M11 Q1026=
  TAF 9 timer BGPT 221858Z 2218/2220 CNL=

NARSAQ
  AKTUEL BGNS 222150Z AUTO 08009KT //// ///////// M00/M13 Q1028=

NANORTALIK
  AKTUEL BGNN 222020Z AUTO 26005KT //// ///////// 01/M10 Q1027=

NUUK
  AKTUEL BGGH 222150Z 04008KT 010V070 9999 SCT060 BKN150 M02/M05 Q1025 RMK LAST OBS=
  TAF 9 timer BGGH 221718Z 2218/2223 10005KT 9999 BKN180 PROB40 2218/2223 BKN070=

KANGERLUSSUAQ
  AKTUEL BGSF 222150Z AUTO 06007KT 9999NDV FEW033/// M15/M19 Q1028=
  TAF 24 timer BGSF 221658Z 2218/2324 06010KT 9999 FEW040 SCT060 TEMPO 2218/2324 BKN035=


SIGMETS:

Ingen SIGMET fundet:

SNOWTAM:

ICAO
BGBW (NARSARSUAQ)

valid from:
1711221010

Notam_id:
0040

SNOWTAM 0040 A)BGBW B)11221010 C)06 F)NIL/NIL/NIL H)5/5/5 N)8/GOOD R)8/GOOD T)RWY CLEAR AND DRY BA GOOD - TWYS AND APRON CONTAMINATION 010 PERCENT


ICAO
BGPT (PAAMIUT)

valid from:
1711221300

Notam_id:
0042

SNOWTAM 0042 A)BGPT B)11221300 C)17 F)4/4/4 G)1/1/1 H)5/5/5 N)4/GOOD R)47/GOOD T)RWY CONTAMINATION 10 PERCENT 1MM DRY SNOW. MEASURED FRICTION COEFFICIENTS RWY 17 50/60/60 TAP. TWY CONTAMINATED 10 PERCENT 1MM DRY SNOW. APRON CONTAMINATED 25 PERCENT 1MM DRY SNOW, 10 PERCENT 2MM ICE MAINLY BY APRON EDGES.


ICAO
BGGH (NUUK)

valid from:
1711221938

Notam_id:
0143

SNOWTAM 0143 A)BGGH B)11221938 C)05 F)7/7/7 G)1/1/1 H)5/5/5 N)37/GOOD R)37/POOR T)RWY CONTAMINATION 100 PERCENT 1MM ICE - MEASURED FRICTION COEFFICIENTS 64/78/77 TAP


ICAO
BGSF (KANGERLUSSUAQ)

valid from:
1711221745

Notam_id:
0111

SNOWTAM 0111 A)BGSF B)11221745 C)09 F)83/83/83 G)1/1/1 H)1/2/2 N)A/83/MEDIUM B C D/83/MEDIUM R)N E W HELI-APRON/83/MEDIUM T)MEASURED FRICTION COEFFICIENTS 24/27/28 TAP, RWY CONTAMINATION 10 PERCENT 1MM OF COMPACTED OR ROLLED SNOW AND 100 PERCENT 1MM RIME OR FROST COVERED, SWEEPING IN PROGRESS



NOTAM/SNOWTAM for operationel use has to be confirmed with the
nearest AIS Briefing Office prior to a flight.

ICAO
BGBW (NARSARSUAQ)

FIR
BGGL

Notam_id:
BGA0529/17

valid from:
1711151241

E) REF AD-2 RNAV (GNSS) Y RWY 06-1 DUE TO TERRAIN WARNING REPORTS ON FINAL, LNAV OCA(H) INCREASED. CAT A INCREASED TO 1800(1688) FT FOR ALL CLIMB GRADIENTS. CAT B INCREASED TO 1800(1688) FT FOR ALL CLIMB GRADIENTS. CAT C INCREASED TO 1800(1688) FT FOR ALL CLIMB GRADIENTS.

valid to:
1712301900EST


Replacing:
BGA0527/17

ICAO
BGBW (NARSARSUAQ)

FIR
BGGL

Notam_id:
BGA0530/17

valid from:
1711151246

E) REF AD-2 RNAV (GNSS) Z RWY 06-1 DUE TO TERRAIN WARNING REPORTS ON FINAL, LNAV OCA(H) INCREASED. CAT A INCREASED TO 1800(1688) FT FOR ALL CLIMB GRADIENTS, CAT B INCREASED TO 1800(1688) FT FOR ALL CLIMB GRADIENTS.

valid to:
1712301900EST


Replacing:
BGA0528/17

ICAO
BGJH (QAQORTOQ)

FIR
BGGL

Notam_id:
BGC0045/17

valid from:
1711090000

E) TRIGGER NOTAM - PERM AIP AIRAC AMDT 11/17 WEF 09 NOV 2017. NEW REMARKS CONCERNING OPERATION LIMITATIONS FOR HELICOPTERS.

valid to:
1711222359




ICAO
BGJH (QAQORTOQ)

FIR
BGGL

Notam_id:
BGC0055/17

valid from:
1711081913

E) REF. AIP GNLD AIRAC AMDT 11/17 VALID 09 NOV 17 DISREGARD EXISTING REMARKS 1 TO 4 UNDER ITEM 2, SUB-ITEM 7. NEW REMARKS TO FOLLOW IN NEW NOTAM

valid to:
PERM




ICAO
BGJH (QAQORTOQ)

FIR
BGGL

Notam_id:
BGC0056/17

valid from:
1711081919

E) DUE TO REDUCED APPROACH AND DEPARTURE SECTOR MAXIMUM HELICOPTER LENGTH TO OPERATE AT QAQOR-TOQ, MAIN ROTOR INCLUDED, NOT TO EXCEED 20 METERS. HELISTOP ONLY CERTIFIED TO OPERATE HELICOPTERS WITH MTOW OF UP TO 1O TONNES AND WHICH ARE CERTIFIED TO CARRY UP TO A MAXIMUM OF 19 PASSENGERS. TAKE OFF AND LANDING MUST ONLY TAKE PLACE WHEN WIND VELOCITY DOES NOT EXCEED 35KT. REF. AIP GREENLAND AD 4-BGJH-1 PKT. 2 PKT. 7

valid to:
PERM




ICAO
BGNN (NANORTALIK)

FIR
BGGL

Notam_id:
BGC0057/17

valid from:
1711131323

E) DIGITAL WIND DIRECTION INDICATOR DISPLAYS OPPOSITE DIRECTION.

valid to:
1712132359




ICAO
BGGL (SONDRESTROM FIR)

FIR
BGGL

Notam_id:
BGA0491/17

valid from:
1711010602

E) CHECKLIST YEAR=2017 0269 0475 0479 LATEST PUBLICATIONS AIP AIRAC AMDT IFR 012/2017 EFFECTIVE DATE 07 DEC 17 AIP AMDT IFR 010/2017 EFFECTIVE DATE 26 OCT 17 AIP SUP IFR 004/2017 EFFECTIVE DATE 10 OCT 17 AIC IFR A002/2017 EFFECTIVE DATE 31 AUG 17

valid to:
1712010602EST


Replacing:
BGA0443/17

ICAO
BGGL (SONDRESTROM FIR)

FIR
BGGL

Notam_id:
BGB0812/17

valid from:
1711010603

E) CHECKLIST YEAR=2016 0593 YEAR=2017 0649 0650 0712 0713 0720 0722 0740 0775 0779 0780 0781 0786 0787 0789 0792 0805 0806 0808 0810 0811 LATEST PUBLICATIONS AIP AIRAC AMDT IFR 012/2017 EFFECTIVE DATE 07 DEC 17 AIP AMDT IFR 010/2017 EFFECTIVE DATE 26 OCT 17 AIP SUP IFR 004/2017 EFFECTIVE DATE 10 OCT 17 AIC IFR A002/2017 EFFECTIVE DATE 31 AUG 17

valid to:
1712010603EST


Replacing:
BGB0761/17

ICAO
BGGL (SONDRESTROM FIR)

FIR
BGGL

Notam_id:
BGC0053/17

valid from:
1711010603

E) CHECKLIST YEAR=2016 0044 YEAR=2017 0045 0050 0051 LATEST PUBLICATIONS AIP AIRAC AMDT IFR 012/2017 EFFECTIVE DATE 07 DEC 17 AIP AMDT IFR 010/2017 EFFECTIVE DATE 26 OCT 17 AIP SUP IFR 004/2017 EFFECTIVE DATE 10 OCT 17 AIC IFR A002/2017 EFFECTIVE DATE 31 AUG 17

valid to:
1712010603EST


Replacing:
BGC0049/17

ICAO
BGGL (SONDRESTROM FIR)

FIR
BGGL

Notam_id:
BGA0537/17

valid from:
1711201705

E) PRINS CHRISTIAN SUND NDB OZN FREQ 372KHZ PSN:600326N0430935W OUT OF SERVICE.

valid to:
1711241900EST


Replacing:
BGA0536/17

ICAO
BGGH (NUUK)

FIR
BGGL

Notam_id:
BGB0780/17

valid from:
1712070000

E) TRIGGER NOTAM - PERM AIP AIRAC AMDT 12/17 WEF 07 DEC 2017. NEW RNAV GNSS RWY 23 INSTRUMENT APPROACH PROCEDURE. NEW RNAV GNSS CIRCLING B INSTRUMENT APPROACH PROCEDURE.

valid to:
1712202359




ICAO
BGGH (NUUK)

FIR
BGGL

Notam_id:
BGB0789/17

valid from:
1710241439

E) CRANE RAISED AT PSN 641124N0514021W (AIR GREENLAND HANGAR AREA).TOP 82FT AGL.

valid to:
1711301900




ICAO
BGGH (NUUK)

FIR
BGGL

Notam_id:
BGB0806/17

valid from:
1712070000

E) ERROR IN CODING TABLE FOR RNAV (GNSS) APPROACH RWY 23. WITH REF AIP GREENLAND AD 2 ? BGGH RNAV (GNSS) RWY 23 - 2, EFFECTIVE DATE 07 DEC 17. CORRECT THE PATH DESCRIPTOR FOR SERIAL NUMBER 060 TO READ TF INSTEAD OF DF.

valid to:
PERM




ICAO
BGGH (NUUK)

FIR
BGGL

Notam_id:
BGB0814/17

valid from:
1711011108

E) BGGH AFIS FREQ 119,100 MHZ NO COVERAGE IN SEKTOR BETWEEN 060 DEG MAG AND 210 DEG MAG BELOW FL100.

valid to:
1712312359




ICAO
BGSF (KANGERLUSSUAQ)

FIR
BGGL

Notam_id:
BGA0539/17

valid from:
1711211100

E) TWY D CLSD BTW SUNSET AND SUNRISE. IN SPECIAL CASES MARSHALLING CAN BE REQ.

valid to:
PERM





Copyright Naviair   2003-2016